createdAt,value
2023-09-13T00:02:10.404Z,23.50
2023-09-13T00:12:14.452Z,25.50
2023-09-13T00:22:18.477Z,26.50
2023-09-13T00:32:23.357Z,24.90
2023-09-13T00:42:29.518Z,27.10
2023-09-13T00:52:34.718Z,26.50
2023-09-13T01:02:42.896Z,25.70
2023-09-13T01:12:47.815Z,28.20
2023-09-13T01:23:20.046Z,26.50
2023-09-13T01:33:24.927Z,25.20
2023-09-13T01:43:29.616Z,26.00
2023-09-13T01:53:33.559Z,25.20
2023-09-13T02:03:37.532Z,25.60
2023-09-13T02:13:41.222Z,26.10
2023-09-13T02:23:45.322Z,27.60
2023-09-13T02:33:50.894Z,26.00
2023-09-13T02:43:54.742Z,27.30
2023-09-13T02:53:58.491Z,25.90
2023-09-13T03:04:03.041Z,29.50
2023-09-13T03:14:07.832Z,29.60
2023-09-13T03:24:12.821Z,28.00
2023-09-13T03:34:17.876Z,30.20
2023-09-13T03:44:21.958Z,29.20
2023-09-13T03:54:26.542Z,28.20
2023-09-13T04:04:31.488Z,28.40
2023-09-13T04:14:35.292Z,27.30
2023-09-13T04:24:39.052Z,26.80
2023-09-13T04:34:42.998Z,28.10
2023-09-13T04:44:47.207Z,33.10
2023-09-13T04:54:52.026Z,30.00
2023-09-13T05:04:55.897Z,29.70
2023-09-13T05:15:00.018Z,28.60
2023-09-13T05:25:05.211Z,35.00
2023-09-13T05:35:12.067Z,30.30
2023-09-13T05:45:15.903Z,31.50
2023-09-13T05:55:19.642Z,30.60
2023-09-13T06:05:23.396Z,31.50
2023-09-13T06:15:27.211Z,28.60
2023-09-13T06:25:31.254Z,25.30
2023-09-13T06:35:38.927Z,26.30
2023-09-13T06:46:00.484Z,25.20
2023-09-13T06:56:09.428Z,23.60
2023-09-13T07:06:14.242Z,24.00
2023-09-13T07:16:18.478Z,22.80
2023-09-13T07:26:23.188Z,21.90
2023-09-13T07:36:29.328Z,21.80
2023-09-13T07:46:33.145Z,22.90
2023-09-13T07:56:38.832Z,22.20
2023-09-13T08:06:42.911Z,23.80
2023-09-13T08:16:47.234Z,24.20
2023-09-13T08:26:51.485Z,22.50
2023-09-13T08:36:57.478Z,23.20
2023-09-13T08:47:03.983Z,22.60
2023-09-13T08:57:07.833Z,20.40
2023-09-13T09:07:12.438Z,21.50
2023-09-13T09:17:18.647Z,20.00
2023-09-13T09:27:22.759Z,20.60
2023-09-13T09:37:31.437Z,19.50
2023-09-13T09:47:40.089Z,20.20
2023-09-13T09:57:48.370Z,18.20
2023-09-13T10:07:56.115Z,18.30
2023-09-13T10:18:04.580Z,16.00
2023-09-13T10:28:10.934Z,16.60
2023-09-13T10:38:22.053Z,15.70
2023-09-13T10:48:27.443Z,15.50
2023-09-13T10:58:31.798Z,13.70
2023-09-13T11:08:36.213Z,13.10
2023-09-13T11:18:50.637Z,14.50
2023-09-13T11:28:55.843Z,16.50
2023-09-13T11:39:07.173Z,14.40
2023-09-13T11:49:35.112Z,17.20
2023-09-13T11:59:46.910Z,16.70
2023-09-13T12:10:00.302Z,14.90
2023-09-13T12:20:07.585Z,15.70
2023-09-13T12:30:20.044Z,14.30
2023-09-13T12:40:28.135Z,14.10
2023-09-13T12:50:35.143Z,16.40
2023-09-13T13:00:50.928Z,14.80
2023-09-13T13:10:57.540Z,14.00
2023-09-13T13:21:08.730Z,14.30
2023-09-13T13:31:17.075Z,13.90
2023-09-13T13:41:22.251Z,14.30
2023-09-13T13:51:28.120Z,15.20
2023-09-13T14:01:33.756Z,15.80
2023-09-13T14:11:41.012Z,15.30
2023-09-13T14:21:55.422Z,16.40
2023-09-13T14:32:03.276Z,18.70
2023-09-13T14:42:07.478Z,16.80
2023-09-13T15:18:05.874Z,17.40
2023-09-13T15:28:09.766Z,18.20
2023-09-13T15:38:13.589Z,17.30
2023-09-13T15:48:19.365Z,22.60
2023-09-13T15:58:23.200Z,18.70
2023-09-13T16:08:26.919Z,18.60
2023-09-13T16:18:32.931Z,19.20
2023-09-13T16:28:36.686Z,26.00
2023-09-13T16:38:40.580Z,17.70
2023-09-13T16:48:44.458Z,17.50
2023-09-13T16:58:48.212Z,17.40
2023-09-13T17:08:52.337Z,17.90
2023-09-13T17:18:56.156Z,20.90
2023-09-13T17:29:05.721Z,20.80
2023-09-13T17:39:13.300Z,25.60
2023-09-13T17:49:20.774Z,23.40
2023-09-13T17:59:25.119Z,19.70
2023-09-13T18:09:29.010Z,21.90
2023-09-13T18:19:32.868Z,17.80
2023-09-13T18:29:38.468Z,17.20
2023-09-13T18:39:43.326Z,18.00
2023-09-13T18:49:47.213Z,18.60
2023-09-13T18:59:51.414Z,19.30
2023-09-13T19:09:55.706Z,17.20
2023-09-13T19:19:59.477Z,15.10
2023-09-13T19:30:03.402Z,12.30
2023-09-13T19:40:09.120Z,10.40
2023-09-13T19:50:13.200Z,10.40
2023-09-13T20:00:17.435Z,12.80
2023-09-13T20:10:22.555Z,10.70
2023-09-13T20:20:30.686Z,11.00
2023-09-13T20:30:35.413Z,13.60
2023-09-13T20:40:39.204Z,11.40
2023-09-13T20:50:43.397Z,12.40
2023-09-13T21:00:47.781Z,12.60
2023-09-13T21:10:53.604Z,13.10
2023-09-13T21:20:59.570Z,13.10
2023-09-13T21:31:05.023Z,12.70
2023-09-13T21:41:10.184Z,14.00
2023-09-13T21:51:14.733Z,13.50
2023-09-13T22:01:19.070Z,13.30
2023-09-13T22:11:26.799Z,12.70
2023-09-13T22:21:30.602Z,12.50
2023-09-13T22:31:34.505Z,13.20
2023-09-13T22:41:45.248Z,14.40
2023-09-13T22:51:50.541Z,13.80
2023-09-13T23:01:54.594Z,14.10
2023-09-13T23:11:58.400Z,13.10
2023-09-13T23:22:04.003Z,13.80
2023-09-13T23:32:07.822Z,12.90
2023-09-13T23:42:12.851Z,13.70
2023-09-13T23:52:16.675Z,12.40
